CheckWX is a tool to help pilots better visualize weather data.  It is not intended as a substitute for an official pre-flight weather briefing.

07:16:37 UTC

KMEM METAR
Memphis International Airport
Memphis, Tennessee, USA
Current

23 mins ago

KMEM 180654Z 00000KT 10SM CLR 26/20 A2999 RMK AO2 SLP152 T02560200 $
Observed
Sep-18 @ 06:54 UTC
Visibility
10 SM
Flight Rules
VFR
Cloud Levels
  • Clear skies
Temperature
26°C / 79°F
Dewpoint
20°C / 68°F
Humidity
70%
Altimeter
29.99" Hg
Pressure
1015.62 hPa
Previous

1 hour ago

KMEM 180554Z 00000KT 10SM CLR 27/19 A2999 RMK AO2 SLP150 T02720189 10328 20250 403720233 51001 $
Observed
Sep-18 @ 05:54 UTC
Visibility
10 SM
Flight Rules
VFR
Cloud Levels
  • Clear skies
Temperature
27°C / 81°F
Dewpoint
19°C / 66°F
Heat Index
28°C / 83°F
Humidity
62%
Altimeter
29.99" Hg
Pressure
1015.62 hPa
Previous

2 hours ago

KMEM 180454Z 00000KT 10SM CLR 27/21 A2999 RMK AO2 SLP150 T02670206 $
Observed
Sep-18 @ 04:54 UTC
Visibility
10 SM
Flight Rules
VFR
Cloud Levels
  • Clear skies
Temperature
27°C / 81°F
Dewpoint
21°C / 70°F
Heat Index
29°C / 85°F
Humidity
70%
Altimeter
29.99" Hg
Pressure
1015.62 hPa